Domov               UVHVVR             MKGP            O straneh              
ZDRAVSTVENO VARSTVO RASTLIN
  MREŽA AGROMET. POSTAJ
 ► PROGNOSTIČNA OBVESTILA
AGROMETEOROLOŠKI PODATKI -
ARSO
OBVLADOVANJE TVEGANJ ZARADI
NEUGODNIH VREMENSKIH RAZMER
  ► NARAVNE NESREČE
  ► SUŠA/MOČA
  ► NAMAKANJE
  ► ŽLED (gozdarstvo)
KARTOGRAFSKI PRIKAZI
SPLETNE POVEZAVE
PROJEKTI IN PUBLIKACIJE

AGROMETEOROLOŠKA MREŽA: VREMENSKE POSTAJE IN FENOLOŠKA OPAZOVANJA

Pregled podatkov za lokacijo Drenov grič, meteorološka postaja 39324

Pregled senzorjev na lokaciji

ID Ime Zadnja
vrednost
Datum
zadnje
spremembe
Tip
senzorja
3811 Padavine 0.2 mm (mm) 0 mm 17.10.2017 07:30 Rain-O-Matic
3812 Temperatura 2 m ( °C) 6,01 °C 17.10.2017 07:30 50YA
3813 Relativna vlaga 2 m (% RH) 99,93 % RH 17.10.2017 07:30 50YA
3814 Omočenost lista (U) 10 U 17.10.2017 07:30 A730WET

Pregled podatkov zadnjih 24 ur

Zap.
št.
Datum in čas Drenov grič
Omočenost
lista
Padavine
0.2
mm
Relativna
vlaga
2
m
Temperatura
2
m
0 17.10.2017 06:30 10 0 99,93 6,01
1 17.10.2017 06:00 10 0 99,93 5,05
2 17.10.2017 05:30 10 0 99,93 4,81
3 17.10.2017 05:00 10 0 99,93 5,03
4 17.10.2017 04:30 10 0 99,93 5,18
5 17.10.2017 04:00 10 0,2 99,93 4,84
6 17.10.2017 03:30 10 0 99,93 4,84
7 17.10.2017 03:00 10 0 99,93 4,93
8 17.10.2017 02:30 10 0 99,93 4,88
9 17.10.2017 02:00 10 0 99,93 5,23
10 17.10.2017 01:30 10 0 99,9 5,35
11 17.10.2017 01:00 10 0 99,93 6,03
12 17.10.2017 00:30 10 0 99,9 5,98
13 17.10.2017 00:00 10 0 99,93 6,28
14 16.10.2017 23:30 10 0 99,85 6,37
15 16.10.2017 23:00 10 0 99,9 7,13
16 16.10.2017 22:30 10 0 99,76 6,74
17 16.10.2017 22:00 10 0 99,68 7,72
18 16.10.2017 21:30 10 0 99,46 8,21
19 16.10.2017 21:00 10 0 99,44 8,67
20 16.10.2017 20:30 10 0 98,93 9,4
21 16.10.2017 20:00 9 0 98,9 10,35
22 16.10.2017 19:30 5 0 97,53 10,55
23 16.10.2017 19:00 3 0 97,24 12,28
24 16.10.2017 18:30 1 0 94,16 12,67
25 16.10.2017 18:00 0 0 90,94 14,09
26 16.10.2017 17:30 0 0 82,08 15,87
27 16.10.2017 17:00 0 0 68,84 19,54
28 16.10.2017 16:30 0 0 59,95 21,49
29 16.10.2017 16:00 0 0 57,66 21,78
30 16.10.2017 15:30 0 0 56,51 22,08
31 16.10.2017 15:00 0 0 56,36 22,3
32 16.10.2017 14:30 0 0 58,05 21,51
33 16.10.2017 14:00 0 0 62,52 20,1
34 16.10.2017 13:30 0 0 67,62 19,39
35 16.10.2017 13:00 0 0 71,7 18,07
36 16.10.2017 12:30 0 0 77,29 16,51
37 16.10.2017 12:00 0 0 87,37 14,24
38 16.10.2017 11:30 0 0 99,12 11,79
39 16.10.2017 11:00 0 0 99,93 10,84
40 16.10.2017 10:30 0 0 99,93 10,06
41 16.10.2017 10:00 0 0 99,93 9,67
42 16.10.2017 09:30 0 0 99,93 9,16
43 16.10.2017 09:00 0 0 99,93 8,79
44 16.10.2017 08:30 0 0 99,93 8,42
45 16.10.2017 08:00 0 0 99,93 8,18
© 2011 Ministrstvo za kmetijstvo, gozdarstvo in prehrano. Vse pravice pridržane.